Latest Coastal Weather Observations for Dunalley

IDT60701

Issued at 1:22 pm EDT Tuesday 2 March 2021 (issued every 10 minutes, with the page automatically refreshed every 10 minutes)

About coastal observations | Map of coastal stations | Coastal observations for TAS | Marine services | Other Formats
Station Details ID: 094254 Name: DUNALLEY (STROUD POINT) Lat: -42.90 Lon: 147.79 Height: 12.43 m
Data from the previous 72 hours. | See also: Recent months at Dunalley
Date/Time
EDT
Wind Sea
Height
m
Swell Vis
km
Cloud Weather Temp
°C
Press
MSL
hPa
Rain since
9am
mm
Dir  Spd
kts
Gust
kts
Height
m
Period
s
Dir
02/01:00pm WSW 27 32 - - - - - - - 13.5 1013.0 0.8
02/12:30pm WSW 25 31 - - - - - - - 11.4 1013.2 0.8
02/12:00pm WSW 26 31 - - - - - - Rain 12.7 1012.9 0.2
02/11:30am WSW 25 31 - - - - - - - 13.2 1012.9 0.0
02/11:00am WSW 26 31 - - - - - - - 12.0 1012.9 0.0
02/10:30am WSW 26 32 - - - - - - - 12.3 1012.6 0.0
02/10:00am WSW 32 39 - - - - - - - 12.1 1012.4 0.0
02/09:30am SW 29 36 - - - - - - - 12.5 1011.9 0.0
02/09:00am SW 29 35 - - - - - - Recent precip. 12.3 1011.6 12.4
02/08:48am SW 25 36 - - - - - - - 12.3 1011.5 12.4
02/08:30am SW 25 33 - - - - - - - 11.7 1011.4 12.2
02/08:04am SW 25 38 - - - - - - - 11.9 1010.8 12.0
02/08:00am SW 24 31 - - - - - - - 12.3 1010.9 12.0
02/07:30am WSW 31 36 - - - - - - - 12.0 1010.1 12.0
02/07:00am SW 30 35 - - - - - - - 12.1 1009.7 12.0
02/06:30am SW 26 32 - - - - - - - 11.3 1009.4 11.8
02/06:10am SW 26 36 - - - - - - - 11.9 1009.2 11.6
02/06:00am SW 29 37 - - - - - - Rain 11.9 1008.9 11.6
02/05:38am SW 25 36 - - - - - - - 11.9 1008.7 11.4
02/05:30am SW 28 35 - - - - - - - 12.0 1008.7 11.4
02/05:00am SW 28 36 - - - - - - - 12.6 1008.1 11.4
02/04:30am SW 27 32 - - - - - - - 12.7 1007.8 11.0
02/04:17am SW 29 39 - - - - - - - 13.3 1007.7 10.8
02/04:00am SW 29 35 - - - - - - - 13.2 1007.3 10.8
02/03:36am SW 29 39 - - - - - - - 13.4 1006.9 10.8
02/03:30am SW 31 39 - - - - - - - 13.4 1006.8 10.8
02/03:00am SW 31 38 - - - - - - Rain 13.3 1006.0 10.8
02/02:38am SW 31 41 - - - - - - - 12.6 1005.7 10.4
02/02:30am SW 31 38 - - - - - - - 12.9 1005.3 10.0
02/02:02am SW 34 45 - - - - - - - 12.9 1004.9 9.2
02/02:00am SW 35 45 - - - - - - - 13.1 1004.9 9.2
02/01:30am SW 33 47 - - - - - - - 13.2 1004.4 8.4
02/01:28am SW 32 47 - - - - - - - 13.3 1004.2 8.2
02/01:00am SW 30 39 - - - - - - - 13.4 1003.5 7.0
02/12:30am WSW 33 46 - - - - - - - 13.9 1003.0 5.2
02/12:04am WSW 29 39 - - - - - - - 13.8 1002.9 5.2
02/12:00am SW 31 39 - - - - - - Rain 13.7 1002.9 5.2
 
Date/Time
EDT
Wind Sea
Height
m
Swell Vis
km
Cloud Weather Temp
°C
Press
MSL
hPa
Rain since
9am
mm
Dir  Spd
kts
Gust
kts
Height
m
Period
s
Dir
01/11:30pm WSW 30 35 - - - - - - - 13.1 1002.5 5.0
01/11:00pm W 30 36 - - - - - - - 12.4 1002.2 4.8
01/10:30pm W 31 37 - - - - - - - 12.0 1002.0 4.0
01/10:00pm W 30 37 - - - - - - - 11.0 1001.5 2.8
01/09:30pm W 32 38 - - - - - - - 12.7 1001.5 2.8
01/09:00pm W 26 32 - - - - - - - 13.2 1001.4 2.8
01/08:30pm W 25 30 - - - - - - - 13.5 1001.3 2.8
01/08:00pm W 26 31 - - - - - - - 13.6 1000.9 2.8
01/07:30pm WSW 25 31 - - - - - - - 13.3 1000.6 2.8
01/07:11pm WSW 25 34 - - - - - - - 15.3 1000.3 2.6
01/07:00pm SW 19 23 - - - - - - - 14.7 1000.4 2.6
01/06:30pm SW 18 23 - - - - - - - 15.2 1000.3 2.6
01/06:00pm SSW 19 23 - - - - - - - 14.7 1000.4 2.6
01/05:48pm SW 22 26 - - - - - - - 14.7 1000.3 2.6
01/05:30pm WSW 25 30 - - - - - - - 15.0 1000.5 2.6
01/05:00pm WSW 24 29 - - - - - - - 15.5 1000.4 2.6
01/04:30pm WSW 19 23 - - - - - - - 15.0 1000.5 2.6
01/04:03pm NNW 14 30 - - - - - - - 14.3 1000.1 2.2
01/04:00pm N 12 22 - - - - - - - 13.4 999.8 1.4
01/03:56pm NE 11 22 - - - - - - - 15.9 999.8 0.4
01/03:30pm SE 5 8 - - - - - - - 19.1 1000.0 0.0
01/03:00pm SSW 3 4 - - - - - - - 18.2 1000.4 0.0
01/02:30pm SSW 3 4 - - - - - - - 18.4 1001.2 0.0
01/02:00pm SW 5 7 - - - - - - - 17.8 1002.2 0.0
01/01:30pm SW 6 7 - - - - - - - 17.9 1002.7 0.0
01/01:00pm SW 6 7 - - - - - - - 17.9 1003.3 0.0
01/12:30pm WSW 8 9 - - - - - - - 18.1 1004.0 0.0
01/12:00pm WSW 8 9 - - - - - - - 17.9 1004.4 0.0
01/11:30am WSW 8 9 - - - - - - - 18.3 1004.8 0.0
01/11:00am WSW 6 9 - - - - - - - 18.0 1005.0 0.0
01/10:30am WNW 6 8 - - - - - - - 17.7 1005.4 0.0
01/10:00am WSW 6 8 - - - - - - - 17.8 1005.5 0.0
01/09:30am WNW 3 6 - - - - - - - 16.3 1005.8 0.0
01/09:00am NNW 4 5 - - - - - - - 15.8 1005.9 1.6
01/08:30am N 2 3 - - - - - - - 15.6 1006.0 1.6
01/08:00am N 2 2 - - - - - - - 15.3 1006.3 1.6
01/07:30am N 2 3 - - - - - - - 15.1 1006.5 1.6
01/07:00am N 2 3 - - - - - - - 15.1 1006.4 1.4
01/06:30am CALM 0 0 - - - - - - - 15.3 1006.2 1.4
01/06:00am CALM 0 1 - - - - - - Rain 15.4 1006.5 1.4
01/05:30am NNW 2 3 - - - - - - - 15.5 1006.8 0.4
01/05:00am NNW 3 4 - - - - - - - 15.8 1006.8 0.2
01/04:30am NNW 3 3 - - - - - - - 15.6 1007.3 0.2
01/04:00am N 3 4 - - - - - - - 15.8 1007.6 0.2
01/03:30am NE 9 11 - - - - - - - 16.1 1007.5 0.2
01/03:00am NE 6 7 - - - - - - - 16.7 1007.6 0.0
01/02:30am NE 6 9 - - - - - - - 16.8 1008.2 0.0
01/02:00am NNE 7 11 - - - - - - - 16.8 1008.7 0.0
01/01:30am NE 7 9 - - - - - - - 16.9 1008.9 0.0
01/01:00am NE 5 7 - - - - - - - 16.8 1009.2 0.0
01/12:30am NE 6 7 - - - - - - - 16.9 1009.8 0.0
01/12:00am NNE 5 6 - - - - - - - 16.8 1010.2 0.0
 
Date/Time
EDT
Wind Sea
Height
m
Swell Vis
km
Cloud Weather Temp
°C
Press
MSL
hPa
Rain since
9am
mm
Dir  Spd
kts
Gust
kts
Height
m
Period
s
Dir
28/11:30pm NE 7 9 - - - - - - - 16.9 1010.5 0.0
28/11:00pm ENE 8 9 - - - - - - - 16.8 1010.5 0.0
28/10:30pm ENE 9 11 - - - - - - - 16.9 1010.8 0.0
28/10:00pm ENE 10 13 - - - - - - - 16.9 1010.9 0.0
28/09:30pm NE 9 11 - - - - - - - 17.0 1011.3 0.0
28/09:00pm ENE 8 11 - - - - - - - 17.0 1011.2 0.0
28/08:30pm ENE 8 10 - - - - - - - 17.1 1011.0 0.0
28/08:00pm ENE 8 11 - - - - - - - 17.1 1010.9 0.0
28/07:30pm ENE 10 13 - - - - - - - 17.2 1010.9 0.0
28/07:00pm NE 11 13 - - - - - - - 17.7 1010.6 0.0
28/06:30pm NE 11 14 - - - - - - - 17.8 1010.6 0.0
28/06:00pm ENE 11 13 - - - - - - - 18.2 1010.5 0.0
28/05:30pm NE 12 15 - - - - - - - 19.6 1010.4 0.0
28/05:00pm NE 11 13 - - - - - - - 20.5 1010.6 0.0
28/04:30pm NE 11 13 - - - - - - - 20.0 1010.5 0.0
28/04:00pm NE 11 15 - - - - - - - 19.8 1010.4 0.0
28/03:30pm NE 11 14 - - - - - - - 20.1 1010.7 0.0
28/03:00pm NE 11 13 - - - - - - - 20.5 1011.1 0.0
28/02:30pm NE 10 12 - - - - - - - 20.2 1011.4 0.0
28/02:00pm NE 8 12 - - - - - - - 20.6 1011.6 0.0
28/01:30pm ENE 8 10 - - - - - - - 21.5 1011.9 0.0
28/01:00pm ENE 5 7 - - - - - - - 20.6 1012.1 0.0
28/12:30pm SSE 5 5 - - - - - - - 19.5 1012.5 0.0
28/12:00pm SSE 4 5 - - - - - - - 19.1 1012.9 0.0
28/11:30am SSE 4 5 - - - - - - - 18.6 1013.2 0.0
28/11:00am S 4 5 - - - - - - - 17.9 1013.3 0.0
28/10:30am SSW 4 5 - - - - - - - 17.4 1013.6 0.0
28/10:00am SW 5 5 - - - - - - - 16.9 1013.7 0.0
28/09:30am W 5 6 - - - - - - - 16.7 1013.9 0.0
28/09:00am WNW 4 4 - - - - - - - 16.3 1013.8 0.0
28/08:30am CALM 0 0 - - - - - - - 15.3 1013.6 0.0
28/08:00am CALM 0 0 - - - - - - - 14.5 1013.5 0.0
28/07:30am NNW 2 3 - - - - - - - 13.2 1013.3 0.0
28/07:00am NNW 2 3 - - - - - - - 12.8 1013.2 0.0
28/06:30am NNW 2 4 - - - - - - - 13.1 1013.1 0.0
28/06:00am CALM 0 1 - - - - - - - 13.6 1013.2 0.0
28/05:30am NNW 5 6 - - - - - - - 14.0 1013.4 0.0
28/05:00am SSE 4 5 - - - - - - - 14.3 1013.6 0.0
28/04:30am SSE 5 6 - - - - - - - 14.7 1013.6 0.0
28/04:00am SE 3 4 - - - - - - - 14.6 1013.6 0.0
28/03:30am SE 4 5 - - - - - - - 14.7 1013.6 0.0
28/03:00am SE 4 5 - - - - - - - 14.4 1013.6 0.0
28/02:30am SE 2 3 - - - - - - - 14.1 1013.7 0.0
28/02:00am CALM 0 0 - - - - - - - 14.3 1013.8 0.0
28/01:30am CALM 0 1 - - - - - - - 14.4 1014.0 0.0
28/01:00am SE 2 2 - - - - - - - 14.5 1014.3 0.0
28/12:30am SE 2 3 - - - - - - - 14.9 1014.5 0.0
28/12:00am SE 2 3 - - - - - - - 15.3 1014.6 0.0
 
Date/Time
EDT
Wind Sea
Height
m
Swell Vis
km
Cloud Weather Temp
°C
Press
MSL
hPa
Rain since
9am
mm
Dir  Spd
kts
Gust
kts
Height
m
Period
s
Dir
27/11:30pm SE 2 2 - - - - - - - 15.3 1014.7 0.0
27/11:00pm CALM 0 0 - - - - - - - 14.9 1014.8 0.0
27/10:30pm CALM 0 0 - - - - - - - 15.2 1014.9 0.0
27/10:00pm CALM 0 0 - - - - - - - 15.2 1015.0 0.0
27/09:30pm SE 3 5 - - - - - - - 15.3 1015.1 0.0
27/09:00pm SE 1 3 - - - - - - - 15.2 1015.0 0.0
27/08:30pm SE 4 5 - - - - - - - 15.4 1014.7 0.0
27/08:00pm SE 6 7 - - - - - - - 15.6 1014.4 0.0
27/07:30pm SE 7 9 - - - - - - - 15.9 1014.0 0.0
27/07:00pm SE 8 9 - - - - - - - 16.4 1013.8 0.0
27/06:30pm ESE 6 8 - - - - - - - 17.1 1013.7 0.0
27/06:00pm NE 6 8 - - - - - - - 17.8 1013.6 0.0
27/05:30pm ENE 5 7 - - - - - - - 18.6 1013.5 0.0
27/05:00pm S 5 6 - - - - - - - 18.4 1013.6 0.0
27/04:30pm S 5 6 - - - - - - - 18.2 1013.7 0.0
27/04:00pm S 5 6 - - - - - - - 18.4 1013.7 0.0
27/03:30pm SSW 5 6 - - - - - - - 19.4 1014.0 0.0
27/03:00pm S 6 8 - - - - - - - 17.8 1014.1 0.0
27/02:30pm S 5 7 - - - - - - - 17.9 1014.7 0.0
27/02:00pm S 6 8 - - - - - - - 18.1 1014.9 0.0
27/01:30pm S 5 6 - - - - - - - 17.5 1015.0 0.0

Other formats

Comma delimited format used in spreadsheet applications
http://www.bom.gov.au/fwo/IDT60701/IDT60701.94951.axf

JavaScript Object Notation format (JSON) in row-major order
http://www.bom.gov.au/fwo/IDT60701/IDT60701.94951.json

Data quality

Most of these data are generated automatically and are frequently updated. Quality checks on data are not normally performed. It is possible for incorrect values to appear. Refer to information at About Latest Weather Observations and please check the disclaimer before using these data.